< < Back
Terminal Aerodrome Forecast


Current Version              Previous Versions:   1  2  3  4  5  6  7  8  9  

Terminal Aerodrome Forecast

995
FTUS42 KGSP 021731
TAFAVL
TAF
KAVL 021731Z 0218/0318 32005KT P6SM BKN045
     FM030500 00000KT P6SM SCT050
     FM031400 33005KT P6SM SCT050=



Latest METAR

125
SAUS70 KWBC 030600
MTRAVL
METAR KAVL 030554Z AUTO 00000KT 10SM BKN095 22/19 A3009 RMK AO2 SLP159
T02170194 10256 20217 58006


USA.gov is the U.S. government's official web portal to all federal, state and local government web resources and services.